sensor_id;sensor_type;location;lat;lon;timestamp;temperature;humidity
46766;DHT22;32527;51.986;5.842;2022-11-20T00:01:19;-2.20;99.90
46766;DHT22;32527;51.986;5.842;2022-11-20T00:04:54;-2.30;99.90
46766;DHT22;32527;51.986;5.842;2022-11-20T00:08:23;-2.30;99.90
46766;DHT22;32527;51.986;5.842;2022-11-20T00:11:23;-2.30;99.90
46766;DHT22;32527;51.986;5.842;2022-11-20T00:14:50;-2.30;99.90
46766;DHT22;32527;51.986;5.842;2022-11-20T00:17:59;-2.30;99.90
46766;DHT22;32527;51.986;5.842;2022-11-20T00:21:10;-2.50;99.90
46766;DHT22;32527;51.986;5.842;2022-11-20T00:23:57;-2.40;99.90
46766;DHT22;32527;51.986;5.842;2022-11-20T00:26:45;-2.40;99.90
46766;DHT22;32527;51.986;5.842;2022-11-20T00:29:36;-2.40;99.90
46766;DHT22;32527;51.986;5.842;2022-11-20T00:37:25;-2.50;99.90
46766;DHT22;32527;51.986;5.842;2022-11-20T00:40:12;-2.50;99.90
46766;DHT22;32527;51.986;5.842;2022-11-20T00:43:20;-2.50;99.90
46766;DHT22;32527;51.986;5.842;2022-11-20T00:46:27;-2.50;99.90
46766;DHT22;32527;51.986;5.842;2022-11-20T00:49:26;-2.50;99.90
46766;DHT22;32527;51.986;5.842;2022-11-20T00:54:54;-2.60;99.90
46766;DHT22;32527;51.986;5.842;2022-11-20T00:57:26;-2.60;99.90
46766;DHT22;32527;51.986;5.842;2022-11-20T01:00:27;-2.60;99.90
46766;DHT22;32527;51.986;5.842;2022-11-20T01:03:24;-2.60;99.90
46766;DHT22;32527;51.986;5.842;2022-11-20T01:06:22;-2.60;99.90
46766;DHT22;32527;51.986;5.842;2022-11-20T01:09:11;-2.60;99.90
46766;DHT22;32527;51.986;5.842;2022-11-20T01:12:26;-2.70;99.90
46766;DHT22;32527;51.986;5.842;2022-11-20T01:15:14;-2.60;99.90
46766;DHT22;32527;51.986;5.842;2022-11-20T01:20:28;-2.70;99.90
46766;DHT22;32527;51.986;5.842;2022-11-20T01:23:43;-2.70;99.90
46766;DHT22;32527;51.986;5.842;2022-11-20T01:27:11;-2.80;99.90
46766;DHT22;32527;51.986;5.842;2022-11-20T01:30:22;-2.80;99.90
46766;DHT22;32527;51.986;5.842;2022-11-20T01:33:40;-2.80;99.90
46766;DHT22;32527;51.986;5.842;2022-11-20T01:40:09;-2.90;99.90
46766;DHT22;32527;51.986;5.842;2022-11-20T01:43:24;-2.90;99.90
46766;DHT22;32527;51.986;5.842;2022-11-20T01:46:14;0.20;99.90
46766;DHT22;32527;51.986;5.842;2022-11-20T01:52:50;-2.90;99.90
46766;DHT22;32527;51.986;5.842;2022-11-20T01:56:00;-3.00;99.90
46766;DHT22;32527;51.986;5.842;2022-11-20T01:59:18;-3.00;99.90
46766;DHT22;32527;51.986;5.842;2022-11-20T02:02:07;-2.90;99.90
46766;DHT22;32527;51.986;5.842;2022-11-20T02:08:21;-3.00;99.90
46766;DHT22;32527;51.986;5.842;2022-11-20T02:11:03;-3.10;99.90
46766;DHT22;32527;51.986;5.842;2022-11-20T02:13:49;-3.10;99.90
46766;DHT22;32527;51.986;5.842;2022-11-20T02:16:55;-3.10;99.90
46766;DHT22;32527;51.986;5.842;2022-11-20T02:23:16;-3.20;99.90
46766;DHT22;32527;51.986;5.842;2022-11-20T02:26:08;-3.20;99.90
46766;DHT22;32527;51.986;5.842;2022-11-20T02:29:04;-3.20;99.90
46766;DHT22;32527;51.986;5.842;2022-11-20T02:31:49;-3.20;99.90
46766;DHT22;32527;51.986;5.842;2022-11-20T02:34:47;-3.30;99.90
46766;DHT22;32527;51.986;5.842;2022-11-20T02:37:47;-3.30;99.90
46766;DHT22;32527;51.986;5.842;2022-11-20T02:40:53;-3.40;99.90
46766;DHT22;32527;51.986;5.842;2022-11-20T02:43:53;-3.40;99.90
46766;DHT22;32527;51.986;5.842;2022-11-20T02:46:48;-2.40;99.90
46766;DHT22;32527;51.986;5.842;2022-11-20T02:49:58;-3.40;99.90
46766;DHT22;32527;51.986;5.842;2022-11-20T02:55:48;-3.40;99.90
46766;DHT22;32527;51.986;5.842;2022-11-20T02:58:27;-3.40;99.90
46766;DHT22;32527;51.986;5.842;2022-11-20T03:01:18;-3.40;99.90
46766;DHT22;32527;51.986;5.842;2022-11-20T03:03:51;-3.40;99.90
46766;DHT22;32527;51.986;5.842;2022-11-20T03:06:25;-3.40;99.90
46766;DHT22;32527;51.986;5.842;2022-11-20T03:12:01;-3.60;99.90
46766;DHT22;32527;51.986;5.842;2022-11-20T03:14:49;-3.60;99.90
46766;DHT22;32527;51.986;5.842;2022-11-20T03:25:05;-3.50;99.90
46766;DHT22;32527;51.986;5.842;2022-11-20T03:27:33;-3.40;99.90
46766;DHT22;32527;51.986;5.842;2022-11-20T03:39:44;-3.50;99.90
46766;DHT22;32527;51.986;5.842;2022-11-20T03:42:09;-3.50;99.90
46766;DHT22;32527;51.986;5.842;2022-11-20T03:54:39;-3.70;99.90
46766;DHT22;32527;51.986;5.842;2022-11-20T04:14:14;-3.60;99.90
46766;DHT22;32527;51.986;5.842;2022-11-20T04:19:11;-3.60;99.90
46766;DHT22;32527;51.986;5.842;2022-11-20T04:21:37;-3.80;99.90
46766;DHT22;32527;51.986;5.842;2022-11-20T04:24:03;-3.70;99.90
46766;DHT22;32527;51.986;5.842;2022-11-20T04:26:30;-3.70;99.90
46766;DHT22;32527;51.986;5.842;2022-11-20T04:31:24;-3.70;99.90
46766;DHT22;32527;51.986;5.842;2022-11-20T04:36:21;-3.80;99.90
46766;DHT22;32527;51.986;5.842;2022-11-20T04:39:11;-3.70;99.90
46766;DHT22;32527;51.986;5.842;2022-11-20T04:41:37;-3.70;99.90
46766;DHT22;32527;51.986;5.842;2022-11-20T04:44:04;-3.80;99.90
46766;DHT22;32527;51.986;5.842;2022-11-20T04:46:39;-3.80;99.90
46766;DHT22;32527;51.986;5.842;2022-11-20T04:49:05;-4.00;99.90
46766;DHT22;32527;51.986;5.842;2022-11-20T04:56:24;-3.60;99.90
46766;DHT22;32527;51.986;5.842;2022-11-20T05:01:19;-3.90;99.90
46766;DHT22;32527;51.986;5.842;2022-11-20T05:06:14;-3.80;99.90
46766;DHT22;32527;51.986;5.842;2022-11-20T05:11:09;-3.40;99.90
46766;DHT22;32527;51.986;5.842;2022-11-20T05:13:35;-3.90;99.90
46766;DHT22;32527;51.986;5.842;2022-11-20T05:16:43;-3.70;99.90
46766;DHT22;32527;51.986;5.842;2022-11-20T05:18:51;-4.00;99.90
46766;DHT22;32527;51.986;5.842;2022-11-20T05:21:17;-3.70;99.90
46766;DHT22;32527;51.986;5.842;2022-11-20T05:23:44;-3.70;99.90
46766;DHT22;32527;51.986;5.842;2022-11-20T05:26:18;-3.50;99.90
46766;DHT22;32527;51.986;5.842;2022-11-20T05:28:44;-3.70;99.90
46766;DHT22;32527;51.986;5.842;2022-11-20T05:31:16;-3.60;99.90
46766;DHT22;32527;51.986;5.842;2022-11-20T05:33:43;-3.80;99.90
46766;DHT22;32527;51.986;5.842;2022-11-20T05:36:10;-3.60;99.90
46766;DHT22;32527;51.986;5.842;2022-11-20T05:41:07;-3.90;99.90
46766;DHT22;32527;51.986;5.842;2022-11-20T05:43:34;-3.80;99.90
46766;DHT22;32527;51.986;5.842;2022-11-20T05:46:01;-3.70;99.90
46766;DHT22;32527;51.986;5.842;2022-11-20T05:48:27;-3.50;99.90
46766;DHT22;32527;51.986;5.842;2022-11-20T05:50:53;-3.60;99.90
46766;DHT22;32527;51.986;5.842;2022-11-20T05:58:10;-3.90;99.90
46766;DHT22;32527;51.986;5.842;2022-11-20T06:03:03;-3.50;99.90
46766;DHT22;32527;51.986;5.842;2022-11-20T06:22:32;-3.80;99.90
46766;DHT22;32527;51.986;5.842;2022-11-20T06:24:58;-3.90;99.90
46766;DHT22;32527;51.986;5.842;2022-11-20T06:39:33;-3.70;99.90
46766;DHT22;32527;51.986;5.842;2022-11-20T06:41:59;-4.00;99.90
46766;DHT22;32527;51.986;5.842;2022-11-20T06:44:24;-4.20;99.90
46766;DHT22;32527;51.986;5.842;2022-11-20T06:46:50;-3.80;99.90
46766;DHT22;32527;51.986;5.842;2022-11-20T06:59:04;-3.90;99.90
46766;DHT22;32527;51.986;5.842;2022-11-20T07:06:22;-4.10;99.90
46766;DHT22;32527;51.986;5.842;2022-11-20T07:11:13;-4.00;99.90
46766;DHT22;32527;51.986;5.842;2022-11-20T07:16:07;-3.80;99.90
46766;DHT22;32527;51.986;5.842;2022-11-20T07:18:33;-3.60;99.90
46766;DHT22;32527;51.986;5.842;2022-11-20T07:21:03;-3.80;99.90
46766;DHT22;32527;51.986;5.842;2022-11-20T07:23:29;-3.70;99.90
46766;DHT22;32527;51.986;5.842;2022-11-20T07:30:51;-3.70;99.90
46766;DHT22;32527;51.986;5.842;2022-11-20T07:40:35;-2.90;99.90
46766;DHT22;32527;51.986;5.842;2022-11-20T07:45:27;-3.30;99.90
46766;DHT22;32527;51.986;5.842;2022-11-20T07:47:52;-3.50;99.90
46766;DHT22;32527;51.986;5.842;2022-11-20T07:50:19;-3.00;99.90
46766;DHT22;32527;51.986;5.842;2022-11-20T08:00:05;-3.00;99.90
46766;DHT22;32527;51.986;5.842;2022-11-20T08:02:38;-3.10;99.90
46766;DHT22;32527;51.986;5.842;2022-11-20T08:05:08;-3.10;99.90
46766;DHT22;32527;51.986;5.842;2022-11-20T08:07:38;-2.90;99.90
46766;DHT22;32527;51.986;5.842;2022-11-20T08:10:05;-2.60;99.90
46766;DHT22;32527;51.986;5.842;2022-11-20T08:12:31;-2.60;99.90
46766;DHT22;32527;51.986;5.842;2022-11-20T08:15:16;-2.20;99.90
46766;DHT22;32527;51.986;5.842;2022-11-20T08:17:41;-2.10;99.90
46766;DHT22;32527;51.986;5.842;2022-11-20T08:20:07;-2.10;99.90
46766;DHT22;32527;51.986;5.842;2022-11-20T08:22:33;-2.00;99.90
46766;DHT22;32527;51.986;5.842;2022-11-20T08:27:25;-1.80;99.90
46766;DHT22;32527;51.986;5.842;2022-11-20T09:06:25;-1.20;99.90
46766;DHT22;32527;51.986;5.842;2022-11-20T09:08:54;-0.80;99.90
46766;DHT22;32527;51.986;5.842;2022-11-20T09:11:20;-0.60;99.90
46766;DHT22;32527;51.986;5.842;2022-11-20T09:18:38;-0.90;99.90
46766;DHT22;32527;51.986;5.842;2022-11-20T09:21:12;-0.60;99.90
46766;DHT22;32527;51.986;5.842;2022-11-20T09:23:38;-0.60;99.90
46766;DHT22;32527;51.986;5.842;2022-11-20T09:26:10;-0.40;99.90
46766;DHT22;32527;51.986;5.842;2022-11-20T09:28:36;-0.50;99.90
46766;DHT22;32527;51.986;5.842;2022-11-20T09:31:07;0.60;99.90
46766;DHT22;32527;51.986;5.842;2022-11-20T09:33:33;-0.40;99.90
46766;DHT22;32527;51.986;5.842;2022-11-20T09:35:59;-0.90;99.90
46766;DHT22;32527;51.986;5.842;2022-11-20T09:38:24;-0.80;99.90
46766;DHT22;32527;51.986;5.842;2022-11-20T09:41:04;-0.50;99.90
46766;DHT22;32527;51.986;5.842;2022-11-20T09:44:07;-0.60;99.90
46766;DHT22;32527;51.986;5.842;2022-11-20T09:46:54;-0.40;99.90
46766;DHT22;32527;51.986;5.842;2022-11-20T09:52:46;-0.10;99.90
46766;DHT22;32527;51.986;5.842;2022-11-20T09:55:10;-0.30;99.90
46766;DHT22;32527;51.986;5.842;2022-11-20T09:57:40;-0.20;99.90
46766;DHT22;32527;51.986;5.842;2022-11-20T10:00:12;-0.40;99.90
46766;DHT22;32527;51.986;5.842;2022-11-20T10:02:44;1.30;99.90
46766;DHT22;32527;51.986;5.842;2022-11-20T10:05:18;0.20;99.90
46766;DHT22;32527;51.986;5.842;2022-11-20T10:07:51;0.30;99.90
46766;DHT22;32527;51.986;5.842;2022-11-20T10:10:36;0.30;99.90
46766;DHT22;32527;51.986;5.842;2022-11-20T10:13:23;0.20;99.90
46766;DHT22;32527;51.986;5.842;2022-11-20T10:21:41;0.40;99.90
46766;DHT22;32527;51.986;5.842;2022-11-20T10:24:58;0.10;99.90
46766;DHT22;32527;51.986;5.842;2022-11-20T10:27:58;0.30;99.90
46766;DHT22;32527;51.986;5.842;2022-11-20T10:30:29;0.90;99.90
46766;DHT22;32527;51.986;5.842;2022-11-20T10:33:00;0.80;99.90
46766;DHT22;32527;51.986;5.842;2022-11-20T10:36:10;1.10;99.90
46766;DHT22;32527;51.986;5.842;2022-11-20T10:38:47;1.30;99.90
46766;DHT22;32527;51.986;5.842;2022-11-20T10:41:38;1.20;99.90
46766;DHT22;32527;51.986;5.842;2022-11-20T10:44:12;1.30;99.90
46766;DHT22;32527;51.986;5.842;2022-11-20T10:46:46;1.00;99.90
46766;DHT22;32527;51.986;5.842;2022-11-20T10:49:16;1.10;99.90
46766;DHT22;32527;51.986;5.842;2022-11-20T10:52:00;1.20;99.90
46766;DHT22;32527;51.986;5.842;2022-11-20T10:57:52;1.10;99.90
46766;DHT22;32527;51.986;5.842;2022-11-20T11:00:20;1.30;99.90
46766;DHT22;32527;51.986;5.842;2022-11-20T11:02:54;0.90;99.90
46766;DHT22;32527;51.986;5.842;2022-11-20T11:05:33;1.40;99.90
46766;DHT22;32527;51.986;5.842;2022-11-20T11:08:00;1.50;99.90
46766;DHT22;32527;51.986;5.842;2022-11-20T11:10:36;1.50;99.90
46766;DHT22;32527;51.986;5.842;2022-11-20T11:13:04;1.00;99.90
46766;DHT22;32527;51.986;5.842;2022-11-20T11:15:37;1.40;99.90
46766;DHT22;32527;51.986;5.842;2022-11-20T11:18:03;2.40;99.90
46766;DHT22;32527;51.986;5.842;2022-11-20T11:22:59;1.60;99.90
46766;DHT22;32527;51.986;5.842;2022-11-20T11:25:29;1.80;99.90
46766;DHT22;32527;51.986;5.842;2022-11-20T11:27:57;1.60;99.90
46766;DHT22;32527;51.986;5.842;2022-11-20T11:30:24;1.90;99.90
46766;DHT22;32527;51.986;5.842;2022-11-20T11:32:50;1.70;99.90
46766;DHT22;32527;51.986;5.842;2022-11-20T11:35:22;2.20;99.90
46766;DHT22;32527;51.986;5.842;2022-11-20T11:40:14;1.90;99.90
46766;DHT22;32527;51.986;5.842;2022-11-20T11:42:50;2.40;99.90
46766;DHT22;32527;51.986;5.842;2022-11-20T11:47:47;2.10;99.90
46766;DHT22;32527;51.986;5.842;2022-11-20T11:50:20;2.10;99.90
46766;DHT22;32527;51.986;5.842;2022-11-20T11:52:48;1.90;99.90
46766;DHT22;32527;51.986;5.842;2022-11-20T12:00:37;2.20;99.90
46766;DHT22;32527;51.986;5.842;2022-11-20T12:03:24;1.80;99.90
46766;DHT22;32527;51.986;5.842;2022-11-20T12:05:57;1.80;99.90
46766;DHT22;32527;51.986;5.842;2022-11-20T12:08:29;1.90;99.90
46766;DHT22;32527;51.986;5.842;2022-11-20T12:11:03;2.10;99.90
46766;DHT22;32527;51.986;5.842;2022-11-20T12:15:59;1.80;99.90
46766;DHT22;32527;51.986;5.842;2022-11-20T12:18:27;2.00;99.90
46766;DHT22;32527;51.986;5.842;2022-11-20T12:21:20;1.70;99.90
46766;DHT22;32527;51.986;5.842;2022-11-20T12:39:56;2.30;99.90
46766;DHT22;32527;51.986;5.842;2022-11-20T12:45:45;2.30;99.90
46766;DHT22;32527;51.986;5.842;2022-11-20T12:48:26;2.30;99.90
46766;DHT22;32527;51.986;5.842;2022-11-20T12:51:17;2.00;99.90
46766;DHT22;32527;51.986;5.842;2022-11-20T13:07:26;2.60;99.90
46766;DHT22;32527;51.986;5.842;2022-11-20T13:09:53;2.10;99.90
46766;DHT22;32527;51.986;5.842;2022-11-20T13:12:44;2.30;99.90
46766;DHT22;32527;51.986;5.842;2022-11-20T13:15:26;2.10;99.90
46766;DHT22;32527;51.986;5.842;2022-11-20T13:17:59;2.30;99.90
46766;DHT22;32527;51.986;5.842;2022-11-20T13:20:26;2.00;99.90
46766;DHT22;32527;51.986;5.842;2022-11-20T13:22:54;2.80;99.90
46766;DHT22;32527;51.986;5.842;2022-11-20T13:25:35;2.00;99.90
46766;DHT22;32527;51.986;5.842;2022-11-20T13:28:04;1.90;99.90
46766;DHT22;32527;51.986;5.842;2022-11-20T13:33:02;2.00;99.90
46766;DHT22;32527;51.986;5.842;2022-11-20T13:35:40;2.20;99.90
46766;DHT22;32527;51.986;5.842;2022-11-20T13:38:09;2.20;99.90
46766;DHT22;32527;51.986;5.842;2022-11-20T13:41:00;2.10;99.90
46766;DHT22;32527;51.986;5.842;2022-11-20T13:43:47;2.10;99.90
46766;DHT22;32527;51.986;5.842;2022-11-20T13:46:13;2.30;99.90
46766;DHT22;32527;51.986;5.842;2022-11-20T13:48:45;2.10;99.90
46766;DHT22;32527;51.986;5.842;2022-11-20T13:54:14;2.20;99.90
46766;DHT22;32527;51.986;5.842;2022-11-20T14:00:22;2.30;99.90
46766;DHT22;32527;51.986;5.842;2022-11-20T14:05:36;2.10;99.90
46766;DHT22;32527;51.986;5.842;2022-11-20T14:08:04;2.20;99.90
46766;DHT22;32527;51.986;5.842;2022-11-20T14:10:31;2.50;99.90
46766;DHT22;32527;51.986;5.842;2022-11-20T14:12:57;2.10;99.90
46766;DHT22;32527;51.986;5.842;2022-11-20T14:15:33;2.10;99.90
46766;DHT22;32527;51.986;5.842;2022-11-20T14:17:59;2.20;99.90
46766;DHT22;32527;51.986;5.842;2022-11-20T14:20:37;2.30;99.90
46766;DHT22;32527;51.986;5.842;2022-11-20T14:27:57;1.90;99.90
46766;DHT22;32527;51.986;5.842;2022-11-20T14:30:28;2.50;99.90
46766;DHT22;32527;51.986;5.842;2022-11-20T14:32:57;2.10;99.90
46766;DHT22;32527;51.986;5.842;2022-11-20T14:35:33;2.20;99.90
46766;DHT22;32527;51.986;5.842;2022-11-20T14:38:01;2.10;99.90
46766;DHT22;32527;51.986;5.842;2022-11-20T14:40:35;2.10;99.90
46766;DHT22;32527;51.986;5.842;2022-11-20T14:43:14;2.50;99.90
46766;DHT22;32527;51.986;5.842;2022-11-20T14:45:41;2.50;99.90
46766;DHT22;32527;51.986;5.842;2022-11-20T14:48:09;2.20;99.90
46766;DHT22;32527;51.986;5.842;2022-11-20T14:50:38;2.20;99.90
46766;DHT22;32527;51.986;5.842;2022-11-20T14:53:04;2.20;99.90
46766;DHT22;32527;51.986;5.842;2022-11-20T14:55:37;2.20;99.90
46766;DHT22;32527;51.986;5.842;2022-11-20T14:58:04;2.30;99.90
46766;DHT22;32527;51.986;5.842;2022-11-20T15:00:31;2.30;99.90
46766;DHT22;32527;51.986;5.842;2022-11-20T15:05:37;2.20;99.90
46766;DHT22;32527;51.986;5.842;2022-11-20T15:08:09;2.40;99.90
46766;DHT22;32527;51.986;5.842;2022-11-20T15:13:05;2.30;99.90
46766;DHT22;32527;51.986;5.842;2022-11-20T15:15:53;2.20;99.90
46766;DHT22;32527;51.986;5.842;2022-11-20T15:20:54;2.30;99.90
46766;DHT22;32527;51.986;5.842;2022-11-20T15:23:20;2.10;99.90
46766;DHT22;32527;51.986;5.842;2022-11-20T15:25:47;2.30;99.90
46766;DHT22;32527;51.986;5.842;2022-11-20T15:28:21;2.40;99.90
46766;DHT22;32527;51.986;5.842;2022-11-20T15:30:47;2.30;99.90
46766;DHT22;32527;51.986;5.842;2022-11-20T15:33:17;2.30;99.90
46766;DHT22;32527;51.986;5.842;2022-11-20T15:35:43;2.90;99.90
46766;DHT22;32527;51.986;5.842;2022-11-20T15:40:36;2.50;99.90
46766;DHT22;32527;51.986;5.842;2022-11-20T15:48:21;2.30;99.90
46766;DHT22;32527;51.986;5.842;2022-11-20T15:51:07;2.30;99.90
46766;DHT22;32527;51.986;5.842;2022-11-20T15:53:38;2.40;99.90
46766;DHT22;32527;51.986;5.842;2022-11-20T15:58:31;2.10;99.90
46766;DHT22;32527;51.986;5.842;2022-11-20T16:00:57;2.90;99.90
46766;DHT22;32527;51.986;5.842;2022-11-20T16:10:41;2.90;99.90
46766;DHT22;32527;51.986;5.842;2022-11-20T16:13:14;2.50;99.90
46766;DHT22;32527;51.986;5.842;2022-11-20T16:16:28;2.50;99.90
46766;DHT22;32527;51.986;5.842;2022-11-20T16:18:56;2.70;99.90
46766;DHT22;32527;51.986;5.842;2022-11-20T16:24:02;2.40;99.90
46766;DHT22;32527;51.986;5.842;2022-11-20T16:26:28;2.30;99.90
46766;DHT22;32527;51.986;5.842;2022-11-20T16:31:20;2.50;99.90
46766;DHT22;32527;51.986;5.842;2022-11-20T16:33:54;2.50;99.90
46766;DHT22;32527;51.986;5.842;2022-11-20T16:36:22;2.40;99.90
46766;DHT22;32527;51.986;5.842;2022-11-20T16:38:52;2.60;99.90
46766;DHT22;32527;51.986;5.842;2022-11-20T16:41:18;2.50;99.90
46766;DHT22;32527;51.986;5.842;2022-11-20T16:43:46;2.60;99.90
46766;DHT22;32527;51.986;5.842;2022-11-20T16:46:13;2.70;99.90
46766;DHT22;32527;51.986;5.842;2022-11-20T16:51:08;2.60;99.90
46766;DHT22;32527;51.986;5.842;2022-11-20T16:56:14;2.60;99.90
46766;DHT22;32527;51.986;5.842;2022-11-20T16:58:42;3.00;99.90
46766;DHT22;32527;51.986;5.842;2022-11-20T17:01:09;2.60;99.90
46766;DHT22;32527;51.986;5.842;2022-11-20T17:03:37;2.40;99.90
46766;DHT22;32527;51.986;5.842;2022-11-20T17:06:14;2.60;99.90
46766;DHT22;32527;51.986;5.842;2022-11-20T17:11:07;2.60;99.90
46766;DHT22;32527;51.986;5.842;2022-11-20T17:13:33;2.70;99.90
46766;DHT22;32527;51.986;5.842;2022-11-20T17:16:04;2.60;99.90
46766;DHT22;32527;51.986;5.842;2022-11-20T17:23:22;2.30;99.90
46766;DHT22;32527;51.986;5.842;2022-11-20T17:33:07;2.90;99.90
46766;DHT22;32527;51.986;5.842;2022-11-20T17:35:35;2.80;99.90
46766;DHT22;32527;51.986;5.842;2022-11-20T17:38:01;2.60;99.90
46766;DHT22;32527;51.986;5.842;2022-11-20T17:42:52;2.60;99.90
46766;DHT22;32527;51.986;5.842;2022-11-20T17:45:18;2.60;99.90
46766;DHT22;32527;51.986;5.842;2022-11-20T17:50:11;3.00;99.90
46766;DHT22;32527;51.986;5.842;2022-11-20T17:52:36;2.70;99.90
46766;DHT22;32527;51.986;5.842;2022-11-20T18:00:13;2.70;99.90
46766;DHT22;32527;51.986;5.842;2022-11-20T18:02:40;3.10;99.90
46766;DHT22;32527;51.986;5.842;2022-11-20T18:07:33;3.70;99.90
46766;DHT22;32527;51.986;5.842;2022-11-20T18:17:18;3.00;99.90
46766;DHT22;32527;51.986;5.842;2022-11-20T18:19:45;2.60;99.90
46766;DHT22;32527;51.986;5.842;2022-11-20T18:22:12;3.30;99.90
46766;DHT22;32527;51.986;5.842;2022-11-20T18:24:38;2.50;99.90
46766;DHT22;32527;51.986;5.842;2022-11-20T18:27:05;2.60;99.90
46766;DHT22;32527;51.986;5.842;2022-11-20T18:29:32;3.10;99.90
46766;DHT22;32527;51.986;5.842;2022-11-20T18:31:59;3.30;99.90
46766;DHT22;32527;51.986;5.842;2022-11-20T18:34:25;2.60;99.90
46766;DHT22;32527;51.986;5.842;2022-11-20T18:36:51;2.80;99.90
46766;DHT22;32527;51.986;5.842;2022-11-20T18:39:17;3.30;99.90
46766;DHT22;32527;51.986;5.842;2022-11-20T18:44:30;3.20;99.90
46766;DHT22;32527;51.986;5.842;2022-11-20T18:47:34;2.90;99.90
46766;DHT22;32527;51.986;5.842;2022-11-20T18:50:03;2.60;99.90
46766;DHT22;32527;51.986;5.842;2022-11-20T18:52:38;2.80;99.90
46766;DHT22;32527;51.986;5.842;2022-11-20T18:55:05;3.00;99.90
46766;DHT22;32527;51.986;5.842;2022-11-20T18:57:31;2.50;99.90
46766;DHT22;32527;51.986;5.842;2022-11-20T18:59:57;2.80;99.90
46766;DHT22;32527;51.986;5.842;2022-11-20T19:02:27;2.40;99.90
46766;DHT22;32527;51.986;5.842;2022-11-20T19:04:53;2.80;99.90
46766;DHT22;32527;51.986;5.842;2022-11-20T19:07:19;2.60;99.90
46766;DHT22;32527;51.986;5.842;2022-11-20T19:09:50;2.40;99.90
46766;DHT22;32527;51.986;5.842;2022-11-20T19:12:17;2.60;99.90
46766;DHT22;32527;51.986;5.842;2022-11-20T19:14:43;2.60;99.90
46766;DHT22;32527;51.986;5.842;2022-11-20T19:19:37;2.50;99.90
46766;DHT22;32527;51.986;5.842;2022-11-20T19:26:55;2.80;99.90
46766;DHT22;32527;51.986;5.842;2022-11-20T19:29:23;2.50;99.90
46766;DHT22;32527;51.986;5.842;2022-11-20T19:31:48;2.50;99.90
46766;DHT22;32527;51.986;5.842;2022-11-20T19:34:15;2.80;99.90
46766;DHT22;32527;51.986;5.842;2022-11-20T19:36:41;2.70;99.90
46766;DHT22;32527;51.986;5.842;2022-11-20T19:39:08;2.40;99.90
46766;DHT22;32527;51.986;5.842;2022-11-20T19:41:36;2.30;99.90
46766;DHT22;32527;51.986;5.842;2022-11-20T19:44:07;2.50;99.90
46766;DHT22;32527;51.986;5.842;2022-11-20T19:46:35;2.60;99.90
46766;DHT22;32527;51.986;5.842;2022-11-20T19:49:02;2.50;99.90
46766;DHT22;32527;51.986;5.842;2022-11-20T19:51:31;2.80;99.90
46766;DHT22;32527;51.986;5.842;2022-11-20T19:53:58;2.70;99.90
46766;DHT22;32527;51.986;5.842;2022-11-20T19:56:26;2.80;99.90
46766;DHT22;32527;51.986;5.842;2022-11-20T19:58:53;2.30;99.90
46766;DHT22;32527;51.986;5.842;2022-11-20T20:01:21;2.60;99.90
46766;DHT22;32527;51.986;5.842;2022-11-20T20:03:48;2.30;99.90
46766;DHT22;32527;51.986;5.842;2022-11-20T20:06:17;2.80;99.90
46766;DHT22;32527;51.986;5.842;2022-11-20T20:08:43;2.30;99.90
46766;DHT22;32527;51.986;5.842;2022-11-20T20:11:17;2.20;99.90
46766;DHT22;32527;51.986;5.842;2022-11-20T20:16:11;2.50;99.90
46766;DHT22;32527;51.986;5.842;2022-11-20T20:18:38;2.40;99.90
46766;DHT22;32527;51.986;5.842;2022-11-20T20:21:09;2.50;99.90
46766;DHT22;32527;51.986;5.842;2022-11-20T20:26:04;2.70;99.90
46766;DHT22;32527;51.986;5.842;2022-11-20T20:30:56;2.00;99.90
46766;DHT22;32527;51.986;5.842;2022-11-20T20:33:23;2.70;99.90
46766;DHT22;32527;51.986;5.842;2022-11-20T20:35:49;2.30;99.90
46766;DHT22;32527;51.986;5.842;2022-11-20T20:38:14;2.30;99.90
46766;DHT22;32527;51.986;5.842;2022-11-20T20:40:49;2.40;99.90
46766;DHT22;32527;51.986;5.842;2022-11-20T20:43:15;2.60;99.90
46766;DHT22;32527;51.986;5.842;2022-11-20T20:45:48;2.70;99.90
46766;DHT22;32527;51.986;5.842;2022-11-20T20:48:16;2.00;99.90
46766;DHT22;32527;51.986;5.842;2022-11-20T20:50:41;2.60;99.90
46766;DHT22;32527;51.986;5.842;2022-11-20T20:53:08;2.30;99.90
46766;DHT22;32527;51.986;5.842;2022-11-20T20:55:34;2.20;99.90
46766;DHT22;32527;51.986;5.842;2022-11-20T20:58:00;2.30;99.90
46766;DHT22;32527;51.986;5.842;2022-11-20T21:00:26;2.40;99.90
46766;DHT22;32527;51.986;5.842;2022-11-20T21:02:51;2.30;99.90
46766;DHT22;32527;51.986;5.842;2022-11-20T21:07:46;2.30;99.90
46766;DHT22;32527;51.986;5.842;2022-11-20T21:10:30;2.60;99.90
46766;DHT22;32527;51.986;5.842;2022-11-20T21:12:56;2.40;99.90
46766;DHT22;32527;51.986;5.842;2022-11-20T21:15:22;2.10;99.90
46766;DHT22;32527;51.986;5.842;2022-11-20T21:22:58;2.20;99.90
46766;DHT22;32527;51.986;5.842;2022-11-20T21:25:24;2.60;99.90
46766;DHT22;32527;51.986;5.842;2022-11-20T21:52:11;2.30;99.90
46766;DHT22;32527;51.986;5.842;2022-11-20T22:16:48;2.60;99.90
46766;DHT22;32527;51.986;5.842;2022-11-20T22:19:21;2.60;99.90
46766;DHT22;32527;51.986;5.842;2022-11-20T22:21:47;2.30;99.90
46766;DHT22;32527;51.986;5.842;2022-11-20T22:24:15;2.30;99.90
46766;DHT22;32527;51.986;5.842;2022-11-20T22:29:13;2.40;99.90
46766;DHT22;32527;51.986;5.842;2022-11-20T22:34:05;2.60;99.90
46766;DHT22;32527;51.986;5.842;2022-11-20T22:36:32;2.40;99.90
46766;DHT22;32527;51.986;5.842;2022-11-20T22:39:02;2.40;99.90
46766;DHT22;32527;51.986;5.842;2022-11-20T22:41:28;2.20;99.90
46766;DHT22;32527;51.986;5.842;2022-11-20T22:44:05;2.40;99.90
46766;DHT22;32527;51.986;5.842;2022-11-20T22:46:32;2.60;99.90
46766;DHT22;32527;51.986;5.842;2022-11-20T22:49:04;2.40;99.90
46766;DHT22;32527;51.986;5.842;2022-11-20T22:51:32;2.40;99.90
46766;DHT22;32527;51.986;5.842;2022-11-20T22:53:59;2.40;99.90
46766;DHT22;32527;51.986;5.842;2022-11-20T22:58:52;2.20;99.90
46766;DHT22;32527;51.986;5.842;2022-11-20T23:03:54;2.40;99.90
46766;DHT22;32527;51.986;5.842;2022-11-20T23:06:20;2.40;99.90
46766;DHT22;32527;51.986;5.842;2022-11-20T23:08:46;1.90;99.90
46766;DHT22;32527;51.986;5.842;2022-11-20T23:11:17;2.60;99.90
46766;DHT22;32527;51.986;5.842;2022-11-20T23:13:45;2.20;99.90
46766;DHT22;32527;51.986;5.842;2022-11-20T23:16:13;2.40;99.90
46766;DHT22;32527;51.986;5.842;2022-11-20T23:21:13;2.30;99.90
46766;DHT22;32527;51.986;5.842;2022-11-20T23:23:40;2.20;99.90
46766;DHT22;32527;51.986;5.842;2022-11-20T23:26:09;1.80;99.90
46766;DHT22;32527;51.986;5.842;2022-11-20T23:28:37;2.30;99.90
46766;DHT22;32527;51.986;5.842;2022-11-20T23:31:03;2.40;99.90
46766;DHT22;32527;51.986;5.842;2022-11-20T23:35:57;2.20;99.90
46766;DHT22;32527;51.986;5.842;2022-11-20T23:38:22;2.70;99.90
46766;DHT22;32527;51.986;5.842;2022-11-20T23:40:50;2.50;99.90
46766;DHT22;32527;51.986;5.842;2022-11-20T23:43:17;2.20;99.90
46766;DHT22;32527;51.986;5.842;2022-11-20T23:45:48;2.10;99.90
46766;DHT22;32527;51.986;5.842;2022-11-20T23:48:15;1.50;99.90
46766;DHT22;32527;51.986;5.842;2022-11-20T23:53:08;2.00;99.90
46766;DHT22;32527;51.986;5.842;2022-11-20T23:55:34;2.20;99.90
